Time;durP1;ratioP1;P1;durP2;ratioP2;P2;SDS_P1;SDS_P2;PMS_P1;PMS_P2;Temp;Humidity;BMP_temperature;BMP_pressure;BME280_temperature;BME280_humidity;BME280_pressure;Samples;Min_cycle;Max_cycle;Signal;HPM_P1;HPM_P2
2022/12/06 00:01:36;;;;;;;9.18;4.75;;;5.70;99.90;;;;;;5017501;28;20053;-64
2022/12/06 00:04:03;;;;;;;8.23;4.03;;;;;;;;;;5035245;28;20415;-64
2022/12/06 00:06:31;;;;;;;8.32;4.22;;;5.80;99.90;;;;;;5021502;28;20100;-64
2022/12/06 00:08:58;;;;;;;12.30;3.70;;;5.80;99.90;;;;;;5034954;28;20484;-64
2022/12/06 00:11:32;;;;;;;10.32;4.25;;;5.90;99.90;;;;;;5035256;28;20056;-64
2022/12/06 00:14:04;;;;;;;9.63;4.20;;;5.70;99.90;;;;;;5004404;28;20048;-64
2022/12/06 00:16:31;;;;;;;8.93;3.83;;;5.80;99.90;;;;;;5017158;28;20086;-64
2022/12/06 00:18:59;;;;;;;7.10;3.63;;;5.70;99.90;;;;;;5034888;28;20041;-64
2022/12/06 00:21:30;;;;;;;9.43;4.07;;;5.60;99.90;;;;;;5023235;28;20049;-64
2022/12/06 00:24:01;;;;;;;9.52;4.30;;;5.80;99.90;;;;;;5016003;28;20033;-64
2022/12/06 00:26:27;;;;;;;12.10;4.35;;;5.70;99.90;;;;;;5023583;28;20042;-64
2022/12/06 00:28:56;;;;;;;8.88;4.57;;;5.60;99.90;;;;;;5014461;28;20132;-64
2022/12/06 00:31:24;;;;;;;11.02;3.95;;;5.70;99.90;;;;;;5016939;28;20053;-64
2022/12/06 00:33:50;;;;;;;8.60;4.25;;;5.70;99.90;;;;;;5017110;28;20060;-64
2022/12/06 00:36:21;;;;;;;8.15;3.97;;;5.60;99.90;;;;;;5034663;28;20042;-64
2022/12/06 00:38:48;;;;;;;7.90;3.90;;;5.70;99.90;;;;;;5002256;28;20082;-64
2022/12/06 00:41:19;;;;;;;10.25;4.22;;;5.70;99.90;;;;;;5017071;28;20065;-64
2022/12/06 00:43:45;;;;;;;12.75;4.07;;;5.70;99.90;;;;;;5016667;28;20045;-64
2022/12/06 00:46:16;;;;;;;17.88;5.03;;;5.70;99.90;;;;;;5034377;28;20464;-64
2022/12/06 00:48:44;;;;;;;12.32;4.82;;;5.70;99.90;;;;;;5016775;28;20107;-64
2022/12/06 00:51:10;;;;;;;14.07;4.75;;;5.70;99.90;;;;;;5016668;28;20049;-64
2022/12/06 00:53:36;;;;;;;14.32;4.30;;;5.70;99.90;;;;;;5016806;28;20038;-64
2022/12/06 00:56:01;;;;;;;10.65;4.80;;;5.70;99.90;;;;;;5021193;28;20119;-64
2022/12/06 00:58:27;;;;;;;10.68;5.28;;;5.70;99.90;;;;;;5019396;28;20029;-64
2022/12/06 01:00:52;;;;;;;12.60;5.68;;;5.70;99.90;;;;;;5034442;28;20026;-64
2022/12/06 01:03:18;;;;;;;10.32;4.22;;;5.70;99.90;;;;;;5002602;28;20037;-64
2022/12/06 01:05:49;;;;;;;12.18;4.30;;;5.70;99.90;;;;;;5016406;28;20399;-64
2022/12/06 01:08:17;;;;;;;10.30;4.35;;;5.70;99.90;;;;;;5034021;28;20073;-64
2022/12/06 01:10:53;;;;;;;7.70;4.15;;;5.60;99.90;;;;;;5026158;28;20034;-64
2022/12/06 01:13:19;;;;;;;10.02;4.60;;;5.70;99.90;;;;;;5029441;28;20033;-64
2022/12/06 01:15:45;;;;;;;8.52;3.70;;;5.80;99.90;;;;;;5034021;28;20372;-64
2022/12/06 01:18:10;;;;;;;8.13;4.10;;;5.80;99.90;;;;;;5016447;28;20488;-64
2022/12/06 01:20:36;;;;;;;7.72;4.07;;;5.50;99.90;;;;;;5016036;28;20392;-64
2022/12/06 01:23:02;;;;;;;6.55;3.75;;;5.70;99.90;;;;;;5033881;28;20116;-64
2022/12/06 01:25:29;;;;;;;8.20;3.85;;;5.60;99.90;;;;;;5015696;28;20052;-64
2022/12/06 01:27:55;;;;;;;8.65;4.03;;;5.60;99.90;;;;;;5033611;28;20080;-64
2022/12/06 01:30:20;;;;;;;9.50;3.63;;;5.60;99.90;;;;;;5016319;28;20229;-64
2022/12/06 01:32:46;;;;;;;9.05;4.50;;;5.70;99.90;;;;;;5033819;28;20036;-64
2022/12/06 01:35:12;;;;;;;9.32;3.95;;;5.90;99.90;;;;;;5033673;28;20068;-64
2022/12/06 01:37:37;;;;;;;11.65;4.13;;;5.80;99.90;;;;;;5033508;28;20095;-64
2022/12/06 01:40:03;;;;;;;12.65;4.25;;;5.50;99.90;;;;;;5033227;28;20064;-64
2022/12/06 01:42:29;;;;;;;9.07;4.10;;;5.50;99.90;;;;;;5002419;28;20092;-64
2022/12/06 01:44:56;;;;;;;11.57;4.15;;;5.60;99.90;;;;;;5027396;28;20038;-64
2022/12/06 01:47:28;;;;;;;10.18;4.18;;;5.60;99.90;;;;;;5007679;28;20045;-64
2022/12/06 01:50:05;;;;;;;7.75;3.83;;;5.60;99.90;;;;;;5015706;28;20045;-65
2022/12/06 01:52:38;;;;;;;8.60;3.53;;;5.60;99.90;;;;;;5015539;28;20033;-65
2022/12/06 01:55:07;;;;;;;10.77;3.67;;;5.70;99.90;;;;;;5001725;28;20050;-65
2022/12/06 01:57:33;;;;;;;11.32;3.97;;;5.70;99.90;;;;;;5015617;28;20515;-64
2022/12/06 02:00:00;;;;;;;10.38;3.35;;;5.50;99.90;;;;;;5033229;28;20078;-65
2022/12/06 02:02:25;;;;;;;11.85;4.15;;;5.60;99.90;;;;;;5015654;28;20423;-65
2022/12/06 02:04:51;;;;;;;7.68;3.92;;;5.60;99.90;;;;;;5015305;28;20044;-65
2022/12/06 02:07:19;;;;;;;8.68;3.40;;;5.60;99.90;;;;;;5015297;28;20079;-65
2022/12/06 02:09:46;;;;;;;5.70;3.20;;;5.70;99.90;;;;;;5033167;28;20048;-65
2022/12/06 02:12:13;;;;;;;5.85;3.05;;;5.50;99.90;;;;;;5019506;28;20041;-65
2022/12/06 02:14:41;;;;;;;6.85;3.20;;;5.70;99.90;;;;;;5003246;28;20121;-65
2022/12/06 02:17:09;;;;;;;10.07;3.53;;;5.60;99.90;;;;;;5027175;28;20081;-65
2022/12/06 02:20:17;;;;;;;6.82;2.70;;;5.40;99.90;;;;;;5006357;28;20041;-65
2022/12/06 02:23:28;;;;;;;6.40;3.22;;;5.30;99.90;;;;;;4994656;28;20053;-65
2022/12/06 02:26:19;;;;;;;5.32;2.55;;;5.60;99.90;;;;;;4999119;28;20041;-65
2022/12/06 02:29:22;;;;;;;7.53;3.08;;;5.50;99.90;;;;;;5012663;28;20084;-65
2022/12/06 02:32:08;;;;;;;5.72;3.20;;;;;;;;;;5008837;28;20415;-65
2022/12/06 02:34:43;;;;;;;6.32;3.28;;;5.40;99.90;;;;;;5003622;28;20057;-65
2022/12/06 02:37:20;;;;;;;5.03;2.90;;;5.50;99.90;;;;;;5001101;28;20073;-65
2022/12/06 02:40:00;;;;;;;7.18;3.13;;;5.70;99.90;;;;;;5011072;28;20033;-65
2022/12/06 02:42:35;;;;;;;7.47;3.33;;;5.60;99.90;;;;;;5032717;28;20046;-65
2022/12/06 02:45:08;;;;;;;5.72;2.97;;;5.50;99.90;;;;;;5019307;28;20534;-65
2022/12/06 02:47:36;;;;;;;5.70;2.92;;;5.50;99.90;;;;;;5032623;28;20033;-65
2022/12/06 02:50:09;;;;;;;6.85;2.78;;;5.50;99.90;;;;;;5027169;28;20057;-65
2022/12/06 02:52:39;;;;;;;4.22;2.50;;;5.50;99.90;;;;;;5025479;28;20091;-65
2022/12/06 02:55:06;;;;;;;4.47;2.45;;;5.50;99.90;;;;;;5018389;28;20511;-65
2022/12/06 02:57:41;;;;;;;8.07;2.65;;;5.40;99.90;;;;;;5021333;28;20033;-65
2022/12/06 03:00:31;;;;;;;5.70;2.65;;;5.30;99.90;;;;;;5013579;28;20030;-65
2022/12/06 03:03:22;;;;;;;4.28;2.90;;;5.50;99.90;;;;;;5034952;28;20073;-65
2022/12/06 03:06:01;;;;;;;8.07;2.80;;;5.50;99.90;;;;;;5013486;28;20046;-65
2022/12/06 03:08:41;;;;;;;6.60;2.53;;;5.40;99.90;;;;;;5036436;28;20059;-65
2022/12/06 03:11:07;;;;;;;4.07;2.47;;;5.40;99.90;;;;;;4999668;28;20049;-64
2022/12/06 03:13:38;;;;;;;6.82;2.60;;;5.30;99.90;;;;;;5020452;28;20487;-64
2022/12/06 03:16:11;;;;;;;7.05;2.25;;;;;;;;;;5018357;28;20049;-65
2022/12/06 03:18:50;;;;;;;5.43;2.13;;;5.40;99.90;;;;;;5036366;28;20038;-64
2022/12/06 03:21:30;;;;;;;4.22;2.10;;;5.50;99.90;;;;;;5036332;28;20067;-65
2022/12/06 03:23:57;;;;;;;3.25;1.92;;;5.40;99.90;;;;;;5036153;28;20048;-65
2022/12/06 03:26:28;;;;;;;4.30;2.10;;;5.40;99.90;;;;;;5024468;28;20496;-65
2022/12/06 03:28:56;;;;;;;4.03;2.10;;;5.40;99.90;;;;;;5000116;28;20058;-64
2022/12/06 03:31:23;;;;;;;4.75;2.38;;;5.30;99.90;;;;;;5025528;28;20048;-65
2022/12/06 03:33:56;;;;;;;7.30;2.53;;;5.30;99.90;;;;;;5016180;28;20235;-65
2022/12/06 03:36:23;;;;;;;5.40;2.60;;;5.30;99.90;;;;;;5025589;28;20073;-64
2022/12/06 03:38:58;;;;;;;4.65;2.38;;;5.20;99.90;;;;;;5035702;28;20088;-65
2022/12/06 03:41:30;;;;;;;5.00;2.40;;;5.10;99.90;;;;;;5018255;28;20076;-65
2022/12/06 03:43:57;;;;;;;4.40;1.98;;;5.10;99.90;;;;;;5004386;28;20506;-65
2022/12/06 03:46:26;;;;;;;8.27;2.30;;;;;;;;;;5017958;28;20049;-65
2022/12/06 03:48:59;;;;;;;3.10;2.15;;;5.10;99.90;;;;;;5034517;28;20511;-65
2022/12/06 03:51:31;;;;;;;5.63;2.45;;;5.20;99.90;;;;;;4998236;28;20057;-65
2022/12/06 03:53:59;;;;;;;5.32;2.78;;;5.30;99.90;;;;;;4998206;28;20042;-65
2022/12/06 03:56:25;;;;;;;4.03;2.53;;;5.40;99.90;;;;;;5021953;28;20045;-64
2022/12/06 03:58:51;;;;;;;3.75;2.10;;;5.20;99.90;;;;;;5017808;28;20495;-65
2022/12/06 04:01:16;;;;;;;5.00;2.67;;;5.20;99.90;;;;;;5035424;28;20111;-65
2022/12/06 04:03:42;;;;;;;4.43;2.60;;;5.20;99.90;;;;;;5035350;28;20171;-65
2022/12/06 04:06:09;;;;;;;7.28;2.45;;;;;;;;;;5035197;28;20048;-65
2022/12/06 04:08:35;;;;;;;5.18;2.53;;;5.10;99.90;;;;;;5015156;28;20048;-64
2022/12/06 04:11:02;;;;;;;6.90;2.53;;;5.30;99.90;;;;;;5016924;28;20049;-64
2022/12/06 04:13:28;;;;;;;4.10;2.70;;;;;;;;;;5002517;28;20440;-65
2022/12/06 04:15:56;;;;;;;3.22;2.13;;;5.00;99.90;;;;;;5023291;28;20038;-65
2022/12/06 04:18:22;;;;;;;4.03;2.42;;;5.10;99.90;;;;;;5011547;28;20033;-65
2022/12/06 04:23:47;;;;;;;5.57;2.17;;;4.90;99.90;;;;;;5035071;28;20049;-64
2022/12/06 04:26:15;;;;;;;4.65;2.42;;;4.90;99.90;;;;;;5004677;28;20045;-65
2022/12/06 04:39:41;;;;;;;;;;;4.30;99.90;;;;;;5014428;28;20046;-65
2022/12/06 04:44:51;;;;;;;2.43;2.13;;;4.10;99.90;;;;;;5013895;28;20053;-64
2022/12/06 04:47:17;;;;;;;3.50;1.63;;;4.20;99.90;;;;;;5013500;28;20519;-65
2022/12/06 04:49:42;;;;;;;3.70;2.33;;;4.20;99.90;;;;;;5013410;28;20042;-65
2022/12/06 04:52:09;;;;;;;3.92;2.10;;;4.20;99.90;;;;;;5000916;28;20042;-64
2022/12/06 04:54:36;;;;;;;4.10;2.08;;;4.20;99.90;;;;;;5014620;28;20065;-64
2022/12/06 04:57:02;;;;;;;5.60;2.63;;;4.20;99.90;;;;;;5014736;28;20057;-65
2022/12/06 04:59:28;;;;;;;9.77;2.60;;;4.20;99.90;;;;;;5008369;28;20030;-64
2022/12/06 05:01:54;;;;;;;6.35;2.67;;;;;;;;;;5007229;28;20088;-64
2022/12/06 05:04:20;;;;;;;3.42;2.63;;;4.30;99.90;;;;;;5010029;28;20115;-64
2022/12/06 05:06:47;;;;;;;9.25;3.67;;;4.40;99.90;;;;;;5003887;28;20046;-64
2022/12/06 05:09:13;;;;;;;7.35;3.40;;;4.50;99.90;;;;;;5014129;28;20100;-64
2022/12/06 05:11:38;;;;;;;4.82;2.58;;;4.40;99.90;;;;;;5004615;28;20058;-64
2022/12/06 05:14:04;;;;;;;6.45;3.33;;;4.50;99.90;;;;;;5007876;28;20441;-64
2022/12/06 05:16:30;;;;;;;8.27;3.72;;;4.60;99.90;;;;;;5012742;28;20042;-64
2022/12/06 05:18:55;;;;;;;7.47;3.40;;;4.50;99.90;;;;;;5013100;28;20451;-64
2022/12/06 05:21:23;;;;;;;6.72;3.55;;;4.50;99.90;;;;;;5013112;28;20045;-64
2022/12/06 05:23:49;;;;;;;5.78;3.33;;;;;;;;;;5014029;28;20022;-64
2022/12/06 05:26:17;;;;;;;6.55;3.55;;;4.60;99.90;;;;;;5013983;28;20037;-64
2022/12/06 05:28:44;;;;;;;5.40;3.45;;;4.70;99.90;;;;;;5028870;28;20053;-64
2022/12/06 05:31:10;;;;;;;11.00;4.05;;;4.70;99.90;;;;;;5015818;28;20041;-64
2022/12/06 05:33:38;;;;;;;7.22;3.65;;;4.60;99.90;;;;;;5019806;28;20033;-64
2022/12/06 05:36:22;;;;;;;7.75;3.60;;;4.60;99.90;;;;;;5015932;28;20064;-65
2022/12/06 05:38:48;;;;;;;7.50;3.50;;;4.70;99.90;;;;;;5015828;28;20120;-64
2022/12/06 05:41:14;;;;;;;7.35;3.63;;;4.60;99.90;;;;;;5033580;28;20105;-64
2022/12/06 05:43:40;;;;;;;5.03;3.78;;;4.60;99.90;;;;;;4999964;28;20489;-64
2022/12/06 05:46:06;;;;;;;7.97;3.85;;;4.70;99.90;;;;;;4995943;28;20130;-64
2022/12/06 05:48:32;;;;;;;6.43;3.92;;;4.60;99.90;;;;;;5013633;28;20045;-64
2022/12/06 05:50:58;;;;;;;8.80;3.35;;;4.60;99.90;;;;;;5002590;28;20045;-64
2022/12/06 05:53:23;;;;;;;8.80;3.55;;;4.60;99.90;;;;;;5033246;28;20045;-64
2022/12/06 05:55:49;;;;;;;9.07;4.20;;;4.60;99.90;;;;;;5019376;28;20041;-64
2022/12/06 05:58:16;;;;;;;7.18;3.35;;;4.60;99.90;;;;;;5031925;28;20151;-65
2022/12/06 06:00:46;;;;;;;5.55;3.72;;;4.60;99.90;;;;;;5030654;28;20495;-65
2022/12/06 06:03:12;;;;;;;5.85;3.58;;;;;;;;;;5022613;28;20048;-64
2022/12/06 06:05:47;;;;;;;5.93;3.15;;;4.70;99.90;;;;;;5014234;28;20124;-65
2022/12/06 06:08:13;;;;;;;;;;;4.50;99.90;;;;;;5017565;28;20079;-64
2022/12/06 06:10:38;;;;;;;4.57;3.15;;;4.50;99.90;;;;;;5032978;28;19916;-64
2022/12/06 06:13:04;;;;;;;5.00;2.70;;;4.50;99.90;;;;;;5033024;28;20064;-65
2022/12/06 06:15:32;;;;;;;6.65;3.40;;;4.50;99.90;;;;;;5015199;28;20042;-65
2022/12/06 06:17:58;;;;;;;6.22;2.97;;;4.50;99.90;;;;;;5001449;28;20033;-64
2022/12/06 06:20:24;;;;;;;7.38;3.13;;;4.60;99.90;;;;;;5032990;28;20116;-64
2022/12/06 06:22:49;;;;;;;7.53;3.10;;;4.40;99.90;;;;;;5032857;28;20072;-64
2022/12/06 06:25:15;;;;;;;4.68;2.70;;;4.40;99.90;;;;;;5015382;28;20045;-64
2022/12/06 06:27:40;;;;;;;4.88;2.47;;;4.30;99.90;;;;;;5032847;28;20058;-64
2022/12/06 06:30:09;;;;;;;7.15;2.85;;;4.10;99.90;;;;;;5012673;28;20045;-64
2022/12/06 06:32:35;;;;;;;3.72;2.53;;;3.90;99.90;;;;;;5004723;28;20049;-64
2022/12/06 06:35:01;;;;;;;6.70;2.17;;;4.00;99.90;;;;;;5014899;28;20045;-65
2022/12/06 06:37:27;;;;;;;2.47;2.10;;;4.00;99.90;;;;;;5016535;28;20080;-64
2022/12/06 06:39:52;;;;;;;7.45;2.88;;;4.20;99.90;;;;;;5037040;28;20465;-64
2022/12/06 06:42:18;;;;;;;6.88;2.63;;;4.00;99.90;;;;;;5036679;28;20419;-64
2022/12/06 06:44:44;;;;;;;6.75;2.67;;;4.20;99.90;;;;;;5037016;28;20191;-64
2022/12/06 06:47:09;;;;;;;3.30;2.40;;;3.90;99.90;;;;;;5036641;28;20047;-64
2022/12/06 06:49:35;;;;;;;3.72;2.70;;;3.80;99.90;;;;;;5036772;28;20191;-64
2022/12/06 06:52:00;;;;;;;5.25;2.22;;;3.80;99.90;;;;;;5035838;28;20041;-65
2022/12/06 06:54:26;;;;;;;6.03;2.90;;;;;;;;;;5023954;28;20558;-64
2022/12/06 06:56:55;;;;;;;3.55;2.50;;;3.70;99.90;;;;;;5036431;28;20056;-64
2022/12/06 06:59:21;;;;;;;5.72;2.47;;;3.60;99.90;;;;;;5031209;28;20551;-64
2022/12/06 07:01:46;;;;;;;3.85;2.58;;;3.60;99.90;;;;;;4999156;28;20049;-64
2022/12/06 07:04:12;;;;;;;3.15;2.20;;;3.50;99.90;;;;;;5016132;28;20407;-64
2022/12/06 07:06:37;;;;;;;2.60;2.17;;;3.40;99.90;;;;;;5036517;28;20061;-64
2022/12/06 07:09:03;;;;;;;4.70;2.30;;;3.30;99.90;;;;;;5036144;28;20037;-64
2022/12/06 07:11:29;;;;;;;2.10;1.67;;;3.40;99.90;;;;;;5029135;28;20049;-64
2022/12/06 07:13:54;;;;;;;2.92;2.20;;;3.40;99.90;;;;;;5008289;28;20054;-64
2022/12/06 07:16:20;;;;;;;4.13;2.22;;;;;;;;;;5035969;28;20056;-64
2022/12/06 07:18:46;;;;;;;7.03;2.40;;;3.40;99.90;;;;;;5029115;28;20065;-64
2022/12/06 07:21:14;;;;;;;3.25;2.03;;;3.20;99.90;;;;;;5011856;28;20041;-64
2022/12/06 07:23:40;;;;;;;3.03;2.10;;;3.40;99.90;;;;;;5030487;28;20026;-64
2022/12/06 07:26:11;;;;;;;2.40;2.15;;;3.30;99.90;;;;;;5027738;28;20071;-64
2022/12/06 07:28:38;;;;;;;2.65;2.00;;;3.30;99.90;;;;;;5018202;28;20053;-64
2022/12/06 07:31:25;;;;;;;5.45;2.30;;;3.20;99.90;;;;;;5035963;28;20041;-64
2022/12/06 07:33:52;;;;;;;3.63;2.88;;;3.30;99.90;;;;;;5022283;28;20033;-64
2022/12/06 07:36:18;;;;;;;4.25;2.42;;;3.30;99.90;;;;;;5018055;28;20045;-64
2022/12/06 07:38:54;;;;;;;3.60;2.67;;;3.30;99.90;;;;;;5035915;28;20111;-64
2022/12/06 07:46:54;;;;;;;3.53;3.10;;;3.30;99.90;;;;;;5035678;28;20045;-64
2022/12/06 07:49:19;;;;;;;5.60;2.88;;;3.30;99.90;;;;;;5017726;28;20090;-64
2022/12/06 07:51:45;;;;;;;4.38;2.67;;;3.20;99.90;;;;;;5017895;28;20127;-64
2022/12/06 07:54:12;;;;;;;6.05;2.67;;;3.20;99.90;;;;;;5035387;28;20048;-64
2022/12/06 07:56:38;;;;;;;6.10;2.67;;;3.10;99.90;;;;;;5024588;28;20061;-64
2022/12/06 07:59:04;;;;;;;5.00;2.00;;;;;;;;;;5001064;28;20072;-64
2022/12/06 08:01:30;;;;;;;4.32;2.08;;;3.20;99.90;;;;;;5035696;28;20076;-64
2022/12/06 08:04:01;;;;;;;4.47;2.15;;;3.20;99.90;;;;;;5034093;28;20038;-64
2022/12/06 08:06:27;;;;;;;3.97;2.72;;;3.30;99.90;;;;;;5010098;28;20049;-64
2022/12/06 08:08:53;;;;;;;5.53;3.30;;;3.30;99.90;;;;;;5022619;28;20483;-64
2022/12/06 08:11:21;;;;;;;5.05;2.88;;;3.30;99.90;;;;;;5020014;28;20095;-64
2022/12/06 08:13:46;;;;;;;4.10;2.83;;;3.50;99.90;;;;;;5027362;28;20546;-65
2022/12/06 08:16:12;;;;;;;8.52;3.20;;;3.50;99.90;;;;;;5003204;28;20049;-64
2022/12/06 08:18:39;;;;;;;3.80;2.83;;;3.70;99.90;;;;;;5009816;28;20069;-65
2022/12/06 08:21:05;;;;;;;5.32;3.47;;;3.90;99.90;;;;;;5028672;28;20398;-68
2022/12/06 08:23:30;;;;;;;3.67;2.58;;;3.80;99.90;;;;;;5008289;28;20376;-64
2022/12/06 08:25:58;;;;;;;4.93;2.97;;;3.70;99.90;;;;;;5020662;28;20041;-64
2022/12/06 08:28:24;;;;;;;4.40;2.92;;;3.80;99.90;;;;;;5019506;28;20121;-63
2022/12/06 08:30:49;;;;;;;5.78;3.15;;;3.70;99.90;;;;;;4997074;28;20109;-63
2022/12/06 08:33:15;;;;;;;4.43;2.80;;;3.80;99.90;;;;;;4999559;28;20515;-64
2022/12/06 08:35:40;;;;;;;4.72;3.22;;;3.80;99.90;;;;;;5014243;28;20124;-63
2022/12/06 08:38:06;;;;;;;4.68;3.20;;;3.70;99.90;;;;;;4998858;28;20057;-63
2022/12/06 08:40:31;;;;;;;7.25;3.08;;;3.80;99.90;;;;;;5019501;28;20041;-63
2022/12/06 08:42:57;;;;;;;6.25;3.25;;;;;;;;;;5006522;28;20489;-63
2022/12/06 08:45:23;;;;;;;5.32;3.17;;;4.10;99.90;;;;;;5016608;28;20125;-63
2022/12/06 08:47:48;;;;;;;4.82;3.10;;;3.90;99.90;;;;;;5020537;28;20041;-63
2022/12/06 08:50:15;;;;;;;4.75;3.08;;;;;;;;;;5020083;28;20456;-64
2022/12/06 08:52:40;;;;;;;8.02;3.25;;;3.80;99.90;;;;;;5003607;28;20046;-63
2022/12/06 08:55:06;;;;;;;5.95;3.08;;;;;;;;;;5014486;28;20121;-63
2022/12/06 08:57:32;;;;;;;7.10;3.35;;;;;;;;;;5015580;28;20041;-65
2022/12/06 08:59:58;;;;;;;9.60;3.50;;;4.10;99.90;;;;;;5003359;28;20690;-65
2022/12/06 09:02:24;;;;;;;7.53;3.67;;;;;;;;;;5017761;28;20140;-65
2022/12/06 09:04:50;;;;;;;9.07;4.10;;;4.10;99.90;;;;;;5020063;28;20369;-65
2022/12/06 09:07:17;;;;;;;8.68;4.38;;;4.00;99.90;;;;;;5014874;28;20042;-65
2022/12/06 09:09:44;;;;;;;5.43;4.07;;;4.10;99.90;;;;;;5021367;28;20396;-65
2022/12/06 09:12:11;;;;;;;7.35;4.07;;;4.20;99.90;;;;;;5005297;28;20045;-65
2022/12/06 09:14:37;;;;;;;7.32;3.95;;;;;;;;;;5014568;28;20380;-65
2022/12/06 09:17:03;;;;;;;11.57;4.35;;;;;;;;;;5005789;28;20060;-65
2022/12/06 09:19:29;;;;;;;6.25;3.72;;;;;;;;;;5028013;28;20403;-65
2022/12/06 09:21:54;;;;;;;6.43;3.78;;;4.50;99.90;;;;;;5012856;28;20040;-65
2022/12/06 09:24:20;;;;;;;8.65;3.45;;;;;;;;;;5030616;28;20045;-65
2022/12/06 09:26:47;;;;;;;7.38;3.40;;;;;;;;;;5012893;28;20049;-65
2022/12/06 09:29:14;;;;;;;6.45;3.97;;;4.70;99.90;;;;;;5012749;28;20123;-65
2022/12/06 09:31:40;;;;;;;5.85;3.50;;;;;;;;;;5030329;28;20049;-65
2022/12/06 09:34:09;;;;;;;6.15;3.95;;;;;;;;;;5026147;28;20030;-66
2022/12/06 09:36:37;;;;;;;8.02;3.50;;;;;;;;;;4994284;28;20133;-65
2022/12/06 09:39:12;;;;;;;6.63;3.53;;;;;;;;;;5014174;28;20124;-65
2022/12/06 09:42:00;;;;;;;6.07;3.53;;;;;;;;;;5013077;28;20067;-65
2022/12/06 09:44:38;;;;;;;7.03;3.45;;;;;;;;;;5009215;28;20045;-65
2022/12/06 09:47:13;;;;;;;7.03;2.67;;;;;;;;;;5031002;28;20073;-65
2022/12/06 09:50:09;;;;;;;4.00;2.90;;;5.00;99.90;;;;;;5024782;28;20496;-63
2022/12/06 09:52:58;;;;;;;7.47;3.58;;;5.10;99.90;;;;;;5001632;28;20125;-64
2022/12/06 09:55:29;;;;;;;11.50;3.97;;;5.40;99.90;;;;;;4996410;28;20100;-63
2022/12/06 09:58:49;;;;;;;5.65;3.28;;;5.60;99.90;;;;;;5013548;28;20416;-64
2022/12/06 10:01:18;;;;;;;4.88;2.53;;;;;;;;;;4933430;29;20486;-64
2022/12/06 10:03:55;;;;;;;8.32;2.75;;;6.00;99.90;;;;;;5013793;28;20084;-65
2022/12/06 10:06:23;;;;;;;5.22;3.38;;;;;;;;;;4998406;28;20534;-65
2022/12/06 10:09:06;;;;;;;4.18;2.42;;;;;;;;;;4999909;28;20049;-64
2022/12/06 10:11:42;;;;;;;3.90;2.83;;;6.40;99.90;;;;;;4996014;28;20045;-65
2022/12/06 10:14:23;;;;;;;4.03;2.63;;;6.70;99.90;;;;;;5016180;28;20041;-65
2022/12/06 10:16:59;;;;;;;4.82;2.83;;;6.80;99.90;;;;;;5007015;28;20049;-65
2022/12/06 10:19:27;;;;;;;;;;;7.00;99.90;;;;;;4998311;28;20084;-65
2022/12/06 10:22:16;;;;;;;5.15;3.10;;;7.20;99.90;;;;;;5000173;28;19924;-65
2022/12/06 10:24:46;;;;;;;8.70;3.33;;;7.40;99.90;;;;;;5015483;28;20056;-65
2022/12/06 10:27:27;;;;;;;4.28;2.13;;;7.30;99.90;;;;;;4996208;28;20065;-65
2022/12/06 10:29:55;;;;;;;5.35;2.28;;;7.40;99.90;;;;;;5015383;28;20057;-64
2022/12/06 10:32:34;;;;;;;4.40;2.45;;;7.10;99.90;;;;;;5012214;28;20052;-65
2022/12/06 10:35:29;;;;;;;6.13;2.55;;;7.40;99.90;;;;;;5027210;28;20099;-65
2022/12/06 10:38:36;;;;;;;4.45;2.35;;;7.40;99.90;;;;;;5023614;28;20407;-65
2022/12/06 10:41:07;;;;;;;5.97;2.60;;;7.60;99.90;;;;;;5010997;28;20103;-65
2022/12/06 10:43:52;;;;;;;4.88;2.35;;;7.40;99.90;;;;;;5008171;28;20514;-65
2022/12/06 10:47:05;;;;;;;4.20;2.38;;;7.40;99.90;;;;;;5012939;28;20133;-65
2022/12/06 10:49:45;;;;;;;3.88;2.15;;;7.50;99.90;;;;;;4969242;28;20058;-65
2022/12/06 10:52:44;;;;;;;5.00;2.28;;;7.60;99.90;;;;;;5015061;28;20566;-65
2022/12/06 10:55:10;;;;;;;2.88;2.10;;;7.50;99.90;;;;;;5018225;28;20036;-65
2022/12/06 10:57:42;;;;;;;5.10;2.55;;;8.00;99.90;;;;;;4997832;28;20037;-65
2022/12/06 11:00:18;;;;;;;3.55;2.20;;;7.90;99.90;;;;;;5020096;28;20044;-65
2022/12/06 11:03:06;;;;;;;4.28;2.03;;;8.00;99.90;;;;;;4995088;28;20053;-65
2022/12/06 11:05:42;;;;;;;4.18;1.92;;;7.90;99.90;;;;;;4973795;28;20069;-65
2022/12/06 11:08:25;;;;;;;7.55;1.58;;;8.00;99.90;;;;;;4989425;28;20092;-65
2022/12/06 11:10:53;;;;;;;2.90;1.98;;;7.90;99.90;;;;;;5012993;28;20046;-64
2022/12/06 11:13:41;;;;;;;4.88;2.22;;;7.80;99.90;;;;;;5001361;28;20480;-65
2022/12/06 11:16:16;;;;;;;6.68;2.38;;;7.70;99.90;;;;;;5016966;28;20054;-65
2022/12/06 11:18:43;;;;;;;5.85;2.13;;;7.50;99.90;;;;;;5012771;28;20388;-64
2022/12/06 11:21:27;;;;;;;5.85;2.67;;;7.50;99.90;;;;;;4997857;28;20046;-64
2022/12/06 11:24:14;;;;;;;4.53;1.58;;;7.40;99.90;;;;;;5025680;28;20037;-62
2022/12/06 11:27:14;;;;;;;4.32;2.60;;;7.50;99.90;;;;;;5035140;28;20048;-63
2022/12/06 11:29:41;;;;;;;5.10;2.35;;;7.20;99.90;;;;;;5016138;28;20092;-63
2022/12/06 11:32:08;;;;;;;6.95;2.28;;;7.20;99.90;;;;;;5019707;28;20056;-63
2022/12/06 11:34:50;;;;;;;5.57;2.05;;;7.20;99.90;;;;;;5025369;28;20046;-63
2022/12/06 11:37:19;;;;;;;3.47;2.22;;;7.20;99.90;;;;;;4982659;28;20492;-63
2022/12/06 11:39:47;;;;;;;6.47;2.00;;;7.10;99.90;;;;;;5021184;28;20116;-63
2022/12/06 11:42:16;;;;;;;5.25;2.00;;;7.10;99.90;;;;;;5017757;28;20492;-63
2022/12/06 11:44:47;;;;;;;5.15;2.40;;;7.00;99.90;;;;;;5000805;28;20611;-63
2022/12/06 11:47:20;;;;;;;6.95;2.65;;;7.10;99.90;;;;;;4998795;28;20077;-63
2022/12/06 11:49:50;;;;;;;4.65;1.90;;;7.10;99.90;;;;;;5025859;28;20400;-63
2022/12/06 11:52:21;;;;;;;3.58;1.48;;;7.00;99.90;;;;;;5022530;28;20163;-63
2022/12/06 11:55:01;;;;;;;4.50;2.15;;;7.10;99.90;;;;;;5015423;28;20117;-64
2022/12/06 11:57:36;;;;;;;2.67;1.83;;;7.00;99.90;;;;;;5019584;28;20042;-63
2022/12/06 12:00:14;;;;;;;3.95;1.90;;;7.10;99.90;;;;;;5022926;28;20041;-63
2022/12/06 12:02:42;;;;;;;4.82;2.33;;;7.10;99.90;;;;;;4999969;28;20038;-63
2022/12/06 12:05:29;;;;;;;4.65;2.03;;;7.00;99.90;;;;;;5010038;28;20404;-63
2022/12/06 12:08:01;;;;;;;3.28;2.08;;;7.10;99.90;;;;;;5016671;28;20038;-63
2022/12/06 12:10:39;;;;;;;3.08;1.98;;;7.30;99.90;;;;;;4997971;28;20404;-63
2022/12/06 12:16:00;;;;;;;5.25;1.83;;;7.20;99.90;;;;;;5009018;28;20049;-63
2022/12/06 12:18:33;;;;;;;6.93;2.58;;;7.40;99.90;;;;;;4997757;28;20037;-63
2022/12/06 12:21:00;;;;;;;6.15;2.22;;;7.20;99.90;;;;;;5017141;28;20519;-63
2022/12/06 12:23:36;;;;;;;5.60;2.22;;;7.20;99.90;;;;;;5031479;28;20105;-63
2022/12/06 12:26:02;;;;;;;7.15;2.65;;;7.20;99.90;;;;;;5034908;28;20044;-63
2022/12/06 12:28:33;;;;;;;3.95;2.33;;;7.20;99.90;;;;;;5026740;28;20057;-63
2022/12/06 12:31:08;;;;;;;3.17;2.30;;;7.40;99.90;;;;;;5006707;28;20041;-63
2022/12/06 12:33:35;;;;;;;5.68;2.22;;;7.10;99.90;;;;;;5015203;28;20396;-64
2022/12/06 12:36:03;;;;;;;5.22;2.30;;;7.40;99.90;;;;;;5021117;28;20045;-63
2022/12/06 12:38:41;;;;;;;2.95;1.88;;;7.10;99.90;;;;;;5015754;28;20042;-63
2022/12/06 12:41:22;;;;;;;4.97;2.33;;;7.20;99.90;;;;;;5022782;28;20083;-63
2022/12/06 12:44:01;;;;;;;5.60;2.83;;;7.10;99.90;;;;;;5000208;28;20050;-63
2022/12/06 12:46:27;;;;;;;4.32;2.30;;;7.10;99.90;;;;;;4997123;28;20048;-63
2022/12/06 12:48:54;;;;;;;7.28;1.92;;;7.20;99.90;;;;;;5028269;28;20546;-64
2022/12/06 12:51:46;;;;;;;3.78;2.08;;;7.30;99.90;;;;;;5023337;28;20045;-64
2022/12/06 12:54:25;;;;;;;2.58;1.67;;;7.10;99.90;;;;;;5012452;28;20458;-63
2022/12/06 12:56:52;;;;;;;4.28;2.40;;;7.20;99.90;;;;;;5028727;28;20084;-63
2022/12/06 12:59:20;;;;;;;1.50;1.15;;;;;;;;;;4998519;28;20052;-63
2022/12/06 13:01:54;;;;;;;2.30;1.70;;;7.20;99.90;;;;;;5019050;28;20046;-63
2022/12/06 13:04:44;;;;;;;4.55;1.60;;;7.10;99.90;;;;;;5015989;28;20496;-63
2022/12/06 13:07:33;;;;;;;3.25;1.27;;;7.20;99.90;;;;;;5000511;28;20124;-64
2022/12/06 13:10:06;;;;;;;2.65;1.15;;;;;;;;;;5034060;28;20095;-64
2022/12/06 13:12:35;;;;;;;3.75;1.60;;;7.00;99.90;;;;;;5019866;28;20045;-61
2022/12/06 13:15:11;;;;;;;3.10;1.35;;;7.30;99.90;;;;;;4998798;28;20121;-63
2022/12/06 13:17:38;;;;;;;4.07;1.50;;;7.10;99.90;;;;;;5014159;28;20123;-62
2022/12/06 13:20:16;;;;;;;4.40;1.67;;;7.30;99.90;;;;;;5008699;28;20052;-62
2022/12/06 13:22:44;;;;;;;3.38;1.63;;;7.10;99.90;;;;;;5025290;28;20037;-63
2022/12/06 13:25:10;;;;;;;2.50;1.30;;;7.20;99.90;;;;;;5012145;28;20042;-63
2022/12/06 13:27:41;;;;;;;3.35;1.38;;;7.10;99.90;;;;;;4989801;28;20091;-62
2022/12/06 13:30:12;;;;;;;4.35;1.70;;;7.10;99.90;;;;;;5017827;28;20045;-62
2022/12/06 13:32:42;;;;;;;3.50;1.90;;;7.10;99.90;;;;;;4995659;28;20041;-61
2022/12/06 13:35:20;;;;;;;3.38;1.95;;;7.10;99.90;;;;;;5000689;28;20042;-60
2022/12/06 13:38:17;;;;;;;3.00;1.70;;;7.20;99.90;;;;;;5024913;28;20118;-59
2022/12/06 13:41:10;;;;;;;3.25;1.77;;;7.20;99.90;;;;;;5025501;28;20092;-61
2022/12/06 13:43:36;;;;;;;5.60;1.83;;;7.20;99.90;;;;;;5032640;28;20037;-61
2022/12/06 13:46:25;;;;;;;3.65;1.50;;;7.20;99.90;;;;;;5013316;28;20168;-62
2022/12/06 13:49:38;;;;;;;3.25;1.50;;;7.10;99.90;;;;;;5008267;28;20046;-62
2022/12/06 13:52:04;;;;;;;3.95;2.28;;;7.10;99.90;;;;;;4993491;28;20079;-64
2022/12/06 13:54:30;;;;;;;3.80;1.98;;;7.30;99.90;;;;;;4992849;28;20037;-63